This is the latest recevied weather packets stored in our database for station/object KD5UMO-1. If no packets are shown the sender has not sent any weather packets the latest 10 day(s).
| Time | Temp. | Humidity | Pressure | Rain* | Wind** | Luminosity | Snow |
|---|---|---|---|---|---|---|---|
| 1777408354 | 27.22° C | 80% | 1009.6 hPa | 0 mm | - | 77 W/m² | - |
| 1777408053 | 27.22° C | 79% | 1009.7 hPa | 0 mm | - | 84 W/m² | - |
| 1777407750 | 27.22° C | 79% | 1009.5 hPa | 0 mm | - | 84 W/m² | - |
| 1777407445 | 27.22° C | 79% | 1009.2 hPa | 0 mm | - | 86 W/m² | - |
| 1777407141 | 27.22° C | 78% | 1009.1 hPa | 0 mm | - | 88 W/m² | - |
| 1777406836 | 27.78° C | 77% | 1009.2 hPa | 0 mm | - | 95 W/m² | - |
| 1777406532 | 27.78° C | 77% | 1009.5 hPa | 0 mm | - | 111 W/m² | - |
| 1777406227 | 27.78° C | 77% | 1009.4 hPa | 0 mm | - | 157 W/m² | - |
| 1777405926 | 28.33° C | 76% | 1009.6 hPa | 0 mm | - | 207 W/m² | - |
| 1777405623 | 28.89° C | 76% | 1009.3 hPa | 0 mm | - | 273 W/m² | - |
| 1777405321 | 29.44° C | 73% | 1009.4 hPa | 0 mm | - | 348 W/m² | - |
| 1777405021 | 30° C | 73% | 1009.5 hPa | 0 mm | - | 471 W/m² | - |
| 1777404715 | 30° C | 73% | 1010 hPa | 0 mm | - | 734 W/m² | - |
| 1777404411 | 30° C | 72% | 1010.1 hPa | 0 mm | - | 1008 W/m² | - |
| 1777404109 | 29.44° C | 73% | 1010.2 hPa | 0 mm | - | 933 W/m² | - |
| 1777403804 | 30.56° C | 72% | 1010.5 hPa | 0 mm | - | 816 W/m² | - |
| 1777403503 | 30° C | 72% | 1010.6 hPa | 0 mm | - | 914 W/m² | - |
| 1777403198 | 30° C | 72% | 1010.8 hPa | 0 mm | - | 867 W/m² | - |
| 1777402894 | 30° C | 72% | 1011 hPa | 0 mm | - | 542 W/m² | - |
| 1777402590 | 30° C | 73% | 1011 hPa | 0 mm | - | 856 W/m² | - |
| 1777402288 | 30.56° C | 71% | 1011.1 hPa | 0 mm | - | 901 W/m² | - |
| 1777401982 | 30.56° C | 72% | 1010.9 hPa | 0 mm | - | 955 W/m² | - |
| 1777401680 | 30° C | 72% | 1011.1 hPa | 0 mm | - | 787 W/m² | - |
| 1777401378 | 30° C | 72% | 1011.4 hPa | 0 mm | - | 954 W/m² | - |
| 1777401074 | 29.44° C | 74% | 1011.4 hPa | 0 mm | - | 894 W/m² | - |
* Rain latest hour (hover to see other rain measurements)
** Current wind speed in m/s (hover to see current wind gust speed)